Terminal Aerodrome Forecast
Issued by NWS Wilmington, NC

Home | Current Version | Previous Version | Text Only | Print | Product List | Glossary On
Versions: 1 2 3 4 5 6 7 8 9 10 11 12 13 14 15 16 17 18 19 20 21 22 23 24
000
FTUS42 KILM 311100
TAFILM
TAF
KILM 311120Z 3112/0112 03007KT P6SM SCT040 BKN200
     FM311400 01011KT P6SM BKN060
     FM311900 35008KT P6SM SCT040
     FM010800 VRB04KT P6SM VCSH SCT035 BKN080=

USA.gov is the U.S. government's official web portal to all federal, state and local government web resources and services.